Time,TemperatureF,DewpointF,PressureIn,WindDirection,WindDirectionDegrees,WindSpeedMPH,WindSpeedGustMPH,Humidity,HourlyPrecipIn,Conditions,Clouds,dailyrainin,SoftwareType,DateUTC
2013-04-01 00:00:00,56.2,54.8,29.77,NNW,339,0.0,0.0,95,0.00,,,0.56,Wunderground v.1.13,2013-04-01 04:00:00,
2013-04-01 00:02:00,56.2,54.8,29.77,NNW,339,0.0,0.0,95,0.00,,,0.00,Wunderground v.1.13,2013-04-01 04:02:00,
2013-04-01 00:08:00,56.2,54.8,29.77,NNW,339,0.0,0.0,95,0.00,,,0.00,Wunderground v.1.13,2013-04-01 04:08:00,
2013-04-01 00:10:00,56.2,54.8,29.77,NNW,339,0.0,0.0,95,0.00,,,0.00,Wunderground v.1.13,2013-04-01 04:10:00,
2013-04-01 00:16:00,56.0,54.6,29.77,NNW,339,0.0,0.0,95,0.00,,,0.00,Wunderground v.1.13,2013-04-01 04:16:00,
2013-04-01 00:18:00,56.0,54.6,29.77,NNW,339,0.0,0.0,95,0.00,,,0.00,Wunderground v.1.13,2013-04-01 04:18:00,
2013-04-01 00:24:00,55.9,54.5,29.77,NNW,339,0.0,0.0,95,0.00,,,0.00,Wunderground v.1.13,2013-04-01 04:24:00,
2013-04-01 00:26:00,55.9,54.5,29.77,NNW,339,0.0,0.0,95,0.00,,,0.00,Wunderground v.1.13,2013-04-01 04:26:00,
2013-04-01 00:32:00,55.7,54.3,29.77,NNW,339,0.0,0.0,95,0.00,,,0.00,Wunderground v.1.13,2013-04-01 04:32:00,
2013-04-01 00:40:00,55.6,54.2,29.77,NNW,339,0.0,0.0,95,0.00,,,0.00,Wunderground v.1.13,2013-04-01 04:40:00,
2013-04-01 00:46:00,55.4,54.0,29.77,NNW,339,0.0,0.0,95,0.00,,,0.00,Wunderground v.1.13,2013-04-01 04:46:00,
2013-04-01 00:53:00,55.3,53.9,29.77,NNW,339,0.0,0.0,95,0.00,,,0.00,Wunderground v.1.13,2013-04-01 04:53:00,
2013-04-01 00:58:00,55.1,53.7,29.77,NNW,339,0.0,0.0,95,0.00,,,0.00,Wunderground v.1.13,2013-04-01 04:58:00,
2013-04-01 01:04:00,55.1,53.7,29.78,NNW,339,0.0,0.0,95,0.00,,,0.00,Wunderground v.1.13,2013-04-01 05:04:00,
2013-04-01 01:10:00,55.1,53.7,29.78,NNW,339,0.0,0.0,95,0.00,,,0.00,Wunderground v.1.13,2013-04-01 05:10:00,
2013-04-01 01:16:00,55.1,53.7,29.78,NNW,339,0.0,0.0,95,0.00,,,0.00,Wunderground v.1.13,2013-04-01 05:16:00,
2013-04-01 01:22:00,55.1,53.7,29.78,NNW,339,0.0,0.0,95,0.00,,,0.00,Wunderground v.1.13,2013-04-01 05:22:00,
2013-04-01 01:28:00,55.1,53.7,29.78,NNW,339,0.0,0.0,95,0.00,,,0.00,Wunderground v.1.13,2013-04-01 05:28:00,
2013-04-01 01:34:00,55.1,54.0,29.78,NNW,339,0.0,0.0,96,0.00,,,0.00,Wunderground v.1.13,2013-04-01 05:34:00,
2013-04-01 01:40:00,55.3,54.2,29.78,NNW,339,0.0,0.0,96,0.00,,,0.00,Wunderground v.1.13,2013-04-01 05:40:00,
2013-04-01 01:48:00,55.3,54.2,29.77,NNW,339,0.0,0.0,96,0.00,,,0.00,Wunderground v.1.13,2013-04-01 05:48:00,
2013-04-01 01:54:00,55.3,54.2,29.77,NNW,339,0.0,0.0,96,0.00,,,0.00,Wunderground v.1.13,2013-04-01 05:54:00,
2013-04-01 02:00:00,55.3,54.2,29.77,NNW,339,0.0,0.0,96,0.00,,,0.00,Wunderground v.1.13,2013-04-01 06:00:00,
2013-04-01 02:06:00,55.3,54.2,29.77,NNW,339,0.0,0.0,96,0.00,,,0.00,Wunderground v.1.13,2013-04-01 06:06:00,
2013-04-01 02:12:00,55.3,54.2,29.77,NNW,339,0.0,0.0,96,0.00,,,0.00,Wunderground v.1.13,2013-04-01 06:12:00,
2013-04-01 02:18:00,55.3,54.2,29.77,NNW,339,0.0,0.0,96,0.00,,,0.00,Wunderground v.1.13,2013-04-01 06:18:00,
2013-04-01 02:24:00,55.3,54.2,29.77,NNW,339,0.0,0.0,96,0.00,,,0.00,Wunderground v.1.13,2013-04-01 06:24:00,
2013-04-01 02:30:00,55.3,54.2,29.77,NNW,339,0.0,0.0,96,0.00,,,0.00,Wunderground v.1.13,2013-04-01 06:30:00,
2013-04-01 02:36:00,55.3,54.2,29.78,NNW,339,0.0,0.0,96,0.00,,,0.00,Wunderground v.1.13,2013-04-01 06:36:00,
2013-04-01 02:42:00,55.3,54.2,29.78,NNW,339,0.0,0.0,96,0.00,,,0.01,Wunderground v.1.13,2013-04-01 06:42:00,
2013-04-01 02:48:00,55.4,54.3,29.78,NNW,339,0.0,0.0,96,0.00,,,0.01,Wunderground v.1.13,2013-04-01 06:48:00,
2013-04-01 02:54:00,55.4,54.3,29.78,NNW,339,0.0,0.0,96,0.00,,,0.01,Wunderground v.1.13,2013-04-01 06:54:00,
2013-04-01 03:00:00,55.4,54.3,29.78,NNW,339,0.0,0.0,96,0.00,,,0.01,Wunderground v.1.13,2013-04-01 07:00:00,
2013-04-01 03:06:00,55.4,54.3,29.77,NNW,339,0.0,0.0,96,0.00,,,0.02,Wunderground v.1.13,2013-04-01 07:06:00,
2013-04-01 03:12:00,55.4,54.3,29.77,NNW,339,0.0,0.0,96,0.00,,,0.02,Wunderground v.1.13,2013-04-01 07:12:00,
2013-04-01 03:18:00,55.4,54.3,29.77,NNW,339,0.0,0.0,96,0.00,,,0.02,Wunderground v.1.13,2013-04-01 07:18:00,
2013-04-01 03:24:00,55.4,54.3,29.77,NNW,339,0.0,0.0,96,0.00,,,0.02,Wunderground v.1.13,2013-04-01 07:24:00,
2013-04-01 03:30:00,55.4,54.3,29.77,NNW,339,0.0,0.0,96,0.00,,,0.02,Wunderground v.1.13,2013-04-01 07:30:00,
2013-04-01 03:36:00,55.4,54.3,29.76,NNW,339,0.0,0.0,96,0.00,,,0.03,Wunderground v.1.13,2013-04-01 07:36:00,
2013-04-01 03:42:00,55.4,54.3,29.76,NNW,339,0.0,0.0,96,0.00,,,0.03,Wunderground v.1.13,2013-04-01 07:42:00,
2013-04-01 03:48:00,55.4,54.3,29.76,NNW,339,0.0,0.0,96,0.00,,,0.03,Wunderground v.1.13,2013-04-01 07:48:00,
2013-04-01 03:54:00,55.4,54.3,29.76,NNW,339,0.0,0.0,96,0.00,,,0.03,Wunderground v.1.13,2013-04-01 07:54:00,
2013-04-01 04:00:00,55.4,54.3,29.76,NNW,339,0.0,0.0,96,0.00,,,0.03,Wunderground v.1.13,2013-04-01 08:00:00,
2013-04-01 04:06:00,55.3,54.2,29.76,NNW,339,0.0,0.0,96,0.00,,,0.03,Wunderground v.1.13,2013-04-01 08:06:00,
2013-04-01 04:12:00,55.3,54.2,29.76,NNW,339,0.0,0.0,96,0.00,,,0.03,Wunderground v.1.13,2013-04-01 08:12:00,
2013-04-01 04:18:00,55.3,54.2,29.75,NNW,339,0.0,0.0,96,0.00,,,0.03,Wunderground v.1.13,2013-04-01 08:18:00,
2013-04-01 04:24:00,55.3,54.2,29.75,NNW,339,0.0,0.0,96,0.00,,,0.03,Wunderground v.1.13,2013-04-01 08:24:00,
2013-04-01 04:30:00,55.1,54.0,29.75,NNW,339,0.0,0.0,96,0.00,,,0.03,Wunderground v.1.13,2013-04-01 08:30:00,
2013-04-01 04:38:00,55.1,54.0,29.76,NNW,339,0.0,0.0,96,0.00,,,0.03,Wunderground v.1.13,2013-04-01 08:38:00,
2013-04-01 04:44:00,55.1,54.0,29.76,NNW,339,0.0,0.0,96,0.00,,,0.03,Wunderground v.1.13,2013-04-01 08:44:00,
2013-04-01 04:50:00,55.1,54.0,29.76,NNW,339,0.0,0.0,96,0.00,,,0.03,Wunderground v.1.13,2013-04-01 08:50:00,
2013-04-01 04:58:00,55.0,53.9,29.76,NNW,339,0.0,0.0,96,0.00,,,0.03,Wunderground v.1.13,2013-04-01 08:58:00,
2013-04-01 05:04:00,55.0,53.9,29.76,NNW,339,0.0,0.0,96,0.00,,,0.03,Wunderground v.1.13,2013-04-01 09:04:00,
2013-04-01 05:10:00,55.0,53.9,29.76,NNW,339,0.0,0.0,96,0.00,,,0.03,Wunderground v.1.13,2013-04-01 09:10:00,
2013-04-01 05:18:00,54.8,53.7,29.76,NNW,339,0.0,0.0,96,0.00,,,0.03,Wunderground v.1.13,2013-04-01 09:18:00,
2013-04-01 05:24:00,54.8,53.7,29.76,NNW,339,0.0,0.0,96,0.00,,,0.03,Wunderground v.1.13,2013-04-01 09:24:00,
2013-04-01 05:30:00,54.8,53.7,29.76,NNW,339,0.0,0.0,96,0.00,,,0.03,Wunderground v.1.13,2013-04-01 09:30:00,
2013-04-01 05:36:00,54.7,53.6,29.76,NNW,339,0.0,0.0,96,0.00,,,0.03,Wunderground v.1.13,2013-04-01 09:36:00,
2013-04-01 05:42:00,54.7,53.6,29.76,NNW,339,0.0,0.0,96,0.00,,,0.03,Wunderground v.1.13,2013-04-01 09:42:00,
2013-04-01 05:48:00,54.7,53.6,29.77,NNW,339,0.0,0.0,96,0.00,,,0.03,Wunderground v.1.13,2013-04-01 09:48:00,
2013-04-01 05:54:00,54.7,53.6,29.77,NNW,339,0.0,0.0,96,0.00,,,0.03,Wunderground v.1.13,2013-04-01 09:54:00,
2013-04-01 06:00:00,54.7,53.6,29.77,NNW,339,0.0,0.0,96,0.00,,,0.03,Wunderground v.1.13,2013-04-01 10:00:00,
2013-04-01 06:06:00,54.7,53.6,29.78,NNW,339,0.0,0.0,96,0.00,,,0.03,Wunderground v.1.13,2013-04-01 10:06:00,
2013-04-01 06:12:00,54.7,53.6,29.78,NNW,339,0.0,0.0,96,0.00,,,0.03,Wunderground v.1.13,2013-04-01 10:12:00,
2013-04-01 06:18:00,54.7,53.9,29.78,NNW,339,0.0,0.0,97,0.00,,,0.03,Wunderground v.1.13,2013-04-01 10:18:00,
2013-04-01 06:24:00,54.7,53.9,29.78,NNW,339,0.0,0.0,97,0.00,,,0.03,Wunderground v.1.13,2013-04-01 10:24:00,
2013-04-01 06:30:00,54.7,53.9,29.78,NNW,339,0.0,0.0,97,0.00,,,0.03,Wunderground v.1.13,2013-04-01 10:30:00,
2013-04-01 06:36:00,54.7,53.9,29.78,NNW,339,0.0,0.0,97,0.00,,,0.03,Wunderground v.1.13,2013-04-01 10:36:00,
2013-04-01 06:42:00,54.7,53.9,29.78,NNW,339,0.0,0.0,97,0.00,,,0.03,Wunderground v.1.13,2013-04-01 10:42:00,
2013-04-01 06:48:00,54.7,53.9,29.79,NNW,339,0.0,0.0,97,0.00,,,0.03,Wunderground v.1.13,2013-04-01 10:48:00,
2013-04-01 06:54:00,54.5,53.7,29.79,NNW,339,0.0,0.0,97,0.00,,,0.03,Wunderground v.1.13,2013-04-01 10:54:00,
2013-04-01 07:00:00,54.5,53.7,29.79,NNW,339,0.0,0.0,97,0.00,,,0.03,Wunderground v.1.13,2013-04-01 11:00:00,
2013-04-01 07:08:00,54.4,53.6,29.79,NNW,339,0.0,0.0,97,0.00,,,0.03,Wunderground v.1.13,2013-04-01 11:08:00,
2013-04-01 07:14:00,54.4,53.6,29.79,NNW,339,0.0,0.0,97,0.00,,,0.03,Wunderground v.1.13,2013-04-01 11:14:00,
2013-04-01 07:20:00,54.4,53.6,29.80,NNW,339,0.0,0.0,97,0.00,,,0.03,Wunderground v.1.13,2013-04-01 11:20:00,
2013-04-01 07:26:00,54.2,53.1,29.80,NNW,339,0.0,0.0,96,0.00,,,0.03,Wunderground v.1.13,2013-04-01 11:26:00,
2013-04-01 07:32:00,54.2,53.1,29.81,NNW,339,0.0,0.0,96,0.00,,,0.03,Wunderground v.1.13,2013-04-01 11:32:00,
2013-04-01 07:38:00,54.2,53.1,29.81,NNW,339,0.0,0.0,96,0.00,,,0.03,Wunderground v.1.13,2013-04-01 11:38:00,
2013-04-01 07:44:00,54.1,53.0,29.81,NNW,339,0.0,0.0,96,0.00,,,0.03,Wunderground v.1.13,2013-04-01 11:44:00,
2013-04-01 07:50:00,54.1,53.0,29.81,NNW,339,0.0,0.0,96,0.00,,,0.03,Wunderground v.1.13,2013-04-01 11:50:00,
2013-04-01 07:58:00,54.1,53.0,29.81,NNW,339,0.0,0.0,96,0.00,,,0.03,Wunderground v.1.13,2013-04-01 11:58:00,
2013-04-01 08:04:00,54.1,53.0,29.81,NNW,339,0.0,0.0,96,0.00,,,0.03,Wunderground v.1.13,2013-04-01 12:04:00,
2013-04-01 08:10:00,54.1,53.0,29.81,NNW,339,0.0,0.0,96,0.00,,,0.03,Wunderground v.1.13,2013-04-01 12:10:00,
2013-04-01 08:16:00,54.1,53.0,29.82,NNW,339,0.0,0.0,96,0.00,,,0.03,Wunderground v.1.13,2013-04-01 12:16:00,
2013-04-01 08:22:00,54.1,53.3,29.82,NNW,339,0.0,0.0,97,0.00,,,0.03,Wunderground v.1.13,2013-04-01 12:22:00,
2013-04-01 08:28:00,54.2,53.4,29.82,NNW,339,0.0,0.0,97,0.00,,,0.03,Wunderground v.1.13,2013-04-01 12:28:00,
2013-04-01 08:34:00,54.2,53.4,29.82,NNW,339,0.0,0.0,97,0.00,,,0.03,Wunderground v.1.13,2013-04-01 12:34:00,
2013-04-01 08:40:00,54.4,53.6,29.82,NNW,339,0.0,0.0,97,0.00,,,0.03,Wunderground v.1.13,2013-04-01 12:40:00,
2013-04-01 08:46:00,54.5,53.7,29.82,NNW,339,0.0,0.0,97,0.00,,,0.03,Wunderground v.1.13,2013-04-01 12:46:00,
2013-04-01 08:52:00,54.7,53.9,29.82,NNW,339,0.0,0.0,97,0.00,,,0.03,Wunderground v.1.13,2013-04-01 12:52:00,
2013-04-01 08:58:00,54.7,53.9,29.82,NNW,339,0.0,0.0,97,0.00,,,0.03,Wunderground v.1.13,2013-04-01 12:58:00,
2013-04-01 09:04:00,54.7,53.9,29.82,NNW,339,0.0,0.0,97,0.00,,,0.03,Wunderground v.1.13,2013-04-01 13:04:00,
2013-04-01 09:10:00,54.5,53.7,29.82,NNW,339,0.0,0.0,97,0.00,,,0.03,Wunderground v.1.13,2013-04-01 13:10:00,
2013-04-01 09:16:00,54.7,53.6,29.82,NNW,339,0.0,0.0,96,0.00,,,0.03,Wunderground v.1.13,2013-04-01 13:16:00,
2013-04-01 09:22:00,55.1,52.5,29.82,NNW,339,0.0,0.0,91,0.00,,,0.03,Wunderground v.1.13,2013-04-01 13:22:00,
2013-04-01 09:28:00,55.1,51.9,29.82,NNW,339,0.0,0.0,89,0.00,,,0.03,Wunderground v.1.13,2013-04-01 13:28:00,
2013-04-01 09:34:00,55.3,50.9,29.82,NNW,339,0.0,0.0,85,0.00,,,0.03,Wunderground v.1.13,2013-04-01 13:34:00,
2013-04-01 09:40:00,55.6,51.5,29.82,NNW,339,0.0,0.0,86,0.00,,,0.03,Wunderground v.1.13,2013-04-01 13:40:00,
2013-04-01 09:48:00,56.0,51.6,29.82,NNW,339,0.0,0.0,85,0.00,,,0.03,Wunderground v.1.13,2013-04-01 13:48:00,
2013-04-01 09:54:00,56.7,51.6,29.82,NNW,339,0.0,0.0,83,0.00,,,0.03,Wunderground v.1.13,2013-04-01 13:54:00,
2013-04-01 10:00:00,57.5,50.7,29.82,NNW,339,0.0,0.0,78,0.00,,,0.03,Wunderground v.1.13,2013-04-01 14:00:00,
2013-04-01 10:06:00,58.1,51.3,29.82,NNW,339,0.0,0.0,78,0.00,,,0.03,Wunderground v.1.13,2013-04-01 14:06:00,
2013-04-01 10:12:00,58.4,49.4,29.82,NNW,339,0.0,0.0,72,0.00,,,0.03,Wunderground v.1.13,2013-04-01 14:12:00,
2013-04-01 10:18:00,58.4,49.0,29.82,NNW,339,0.0,0.0,71,0.00,,,0.03,Wunderground v.1.13,2013-04-01 14:18:00,
2013-04-01 10:24:00,59.0,48.1,29.82,NNW,339,1.0,1.0,67,0.00,,,0.03,Wunderground v.1.13,2013-04-01 14:24:00,
2013-04-01 10:30:00,58.4,47.5,29.82,NW,305,0.0,0.0,67,0.00,,,0.03,Wunderground v.1.13,2013-04-01 14:30:00,
2013-04-01 10:36:00,58.7,48.6,29.82,NW,305,0.0,0.0,69,0.00,,,0.03,Wunderground v.1.13,2013-04-01 14:36:00,
2013-04-01 10:42:00,59.8,49.2,29.82,NNW,344,0.0,0.0,68,0.00,,,0.03,Wunderground v.1.13,2013-04-01 14:42:00,
2013-04-01 10:48:00,60.5,47.4,29.81,North,352,0.0,0.0,62,0.00,,,0.03,Wunderground v.1.13,2013-04-01 14:48:00,
2013-04-01 10:54:00,60.7,47.2,29.81,NW,320,0.0,0.0,61,0.00,,,0.03,Wunderground v.1.13,2013-04-01 14:54:00,
2013-04-01 11:00:00,61.6,48.9,29.81,NW,320,0.0,0.0,63,0.00,,,0.03,Wunderground v.1.13,2013-04-01 15:00:00,
2013-04-01 11:06:00,62.1,47.1,29.81,NW,320,0.0,0.0,58,0.00,,,0.03,Wunderground v.1.13,2013-04-01 15:06:00,
2013-04-01 11:12:00,61.8,45.0,29.81,West,274,0.0,0.0,54,0.00,,,0.03,Wunderground v.1.13,2013-04-01 15:12:00,
2013-04-01 11:18:00,61.8,44.5,29.81,NW,319,1.0,1.0,53,0.00,,,0.03,Wunderground v.1.13,2013-04-01 15:18:00,
2013-04-01 11:24:00,62.9,45.0,29.81,NNW,332,1.0,1.0,52,0.00,,,0.03,Wunderground v.1.13,2013-04-01 15:24:00,
2013-04-01 11:30:00,63.2,44.8,29.81,NNW,339,0.0,6.0,51,0.00,,,0.03,Wunderground v.1.13,2013-04-01 15:30:00,
2013-04-01 11:36:00,63.4,44.9,29.81,WNW,288,1.0,1.0,51,0.00,,,0.03,Wunderground v.1.13,2013-04-01 15:36:00,
2013-04-01 11:42:00,63.7,44.7,29.81,NNW,330,0.0,3.0,50,0.00,,,0.03,Wunderground v.1.13,2013-04-01 15:42:00,
2013-04-01 11:48:00,63.9,45.4,29.81,NW,326,1.0,3.0,51,0.00,,,0.03,Wunderground v.1.13,2013-04-01 15:48:00,
2013-04-01 11:54:00,64.0,43.9,29.81,North,350,2.0,2.0,48,0.00,,,0.03,Wunderground v.1.13,2013-04-01 15:54:00,
2013-04-01 12:00:00,64.5,42.1,29.81,NW,316,1.0,1.0,44,0.00,,,0.03,Wunderground v.1.13,2013-04-01 16:00:00,
2013-04-01 12:06:00,65.8,43.3,29.80,NW,308,0.0,0.0,44,0.00,,,0.03,Wunderground v.1.13,2013-04-01 16:06:00,
2013-04-01 12:12:00,66.1,44.7,29.80,WSW,237,0.0,3.0,46,0.00,,,0.03,Wunderground v.1.13,2013-04-01 16:12:00,
2013-04-01 12:18:00,66.0,43.5,29.80,North,359,0.0,0.0,44,0.00,,,0.03,Wunderground v.1.13,2013-04-01 16:18:00,
2013-04-01 12:24:00,67.3,44.0,29.80,NW,322,1.0,1.0,43,0.00,,,0.03,Wunderground v.1.13,2013-04-01 16:24:00,
2013-04-01 12:30:00,66.9,44.9,29.80,NNW,342,1.0,1.0,45,0.00,,,0.03,Wunderground v.1.13,2013-04-01 16:30:00,
2013-04-01 12:36:00,68.1,45.9,29.79,WNW,294,1.0,1.0,45,0.00,,,0.03,Wunderground v.1.13,2013-04-01 16:36:00,
2013-04-01 12:42:00,68.8,46.6,29.79,North,353,2.0,2.0,45,0.00,,,0.03,Wunderground v.1.13,2013-04-01 16:42:00,
2013-04-01 12:48:00,68.8,42.1,29.79,WNW,301,2.0,2.0,38,0.00,,,0.03,Wunderground v.1.13,2013-04-01 16:48:00,
2013-04-01 12:54:00,68.8,44.8,29.79,SW,224,2.0,2.0,42,0.00,,,0.03,Wunderground v.1.13,2013-04-01 16:54:00,
2013-04-01 13:00:00,69.9,44.5,29.79,NW,311,1.0,3.0,40,0.00,,,0.03,Wunderground v.1.13,2013-04-01 17:00:00,
2013-04-01 13:06:00,69.9,44.5,29.79,WSW,258,3.0,3.0,40,0.00,,,0.03,Wunderground v.1.13,2013-04-01 17:06:00,
2013-04-01 13:12:00,69.4,44.0,29.79,WSW,258,2.0,4.0,40,0.00,,,0.03,Wunderground v.1.13,2013-04-01 17:12:00,
2013-04-01 13:18:00,70.8,45.9,29.78,NNW,342,2.0,10.0,41,0.00,,,0.03,Wunderground v.1.13,2013-04-01 17:18:00,
2013-04-01 13:24:00,70.3,42.1,29.78,WSW,250,2.0,2.0,36,0.00,,,0.03,Wunderground v.1.13,2013-04-01 17:24:00,
2013-04-01 13:30:00,70.3,41.3,29.78,North,0,4.0,12.0,35,0.00,,,0.03,Wunderground v.1.13,2013-04-01 17:30:00,
2013-04-01 13:36:00,70.3,40.6,29.77,WNW,289,7.0,7.0,34,0.00,,,0.03,Wunderground v.1.13,2013-04-01 17:36:00,
2013-04-01 13:42:00,70.8,41.8,29.77,North,352,4.0,4.0,35,0.00,,,0.03,Wunderground v.1.13,2013-04-01 17:42:00,
2013-04-01 13:48:00,70.6,41.6,29.77,North,0,4.0,12.0,35,0.00,,,0.03,Wunderground v.1.13,2013-04-01 17:48:00,
2013-04-01 13:54:00,70.9,41.1,29.77,WNW,285,4.0,4.0,34,0.00,,,0.03,Wunderground v.1.13,2013-04-01 17:54:00,
2013-04-01 14:00:00,71.8,40.3,29.77,NNW,335,2.0,2.0,32,0.00,,,0.03,Wunderground v.1.13,2013-04-01 18:00:00,
2013-04-01 14:06:00,70.6,39.3,29.77,South,191,2.0,2.0,32,0.00,,,0.03,Wunderground v.1.13,2013-04-01 18:06:00,
2013-04-01 14:12:00,71.6,43.2,29.77,NW,318,3.0,3.0,36,0.00,,,0.03,Wunderground v.1.13,2013-04-01 18:12:00,
2013-04-01 14:18:00,71.8,39.5,29.76,WNW,292,3.0,3.0,31,0.00,,,0.03,Wunderground v.1.13,2013-04-01 18:18:00,
2013-04-01 14:24:00,71.8,40.3,29.76,SW,216,2.0,2.0,32,0.00,,,0.03,Wunderground v.1.13,2013-04-01 18:24:00,
2013-04-01 14:30:00,72.1,38.9,29.76,West,265,1.0,1.0,30,0.00,,,0.03,Wunderground v.1.13,2013-04-01 18:30:00,
2013-04-01 14:36:00,71.8,39.5,29.75,West,277,2.0,3.0,31,0.00,,,0.03,Wunderground v.1.13,2013-04-01 18:36:00,
2013-04-01 14:42:00,72.3,39.1,29.75,NNW,340,2.0,2.0,30,0.00,,,0.03,Wunderground v.1.13,2013-04-01 18:42:00,
2013-04-01 14:48:00,73.3,40.0,29.75,West,265,2.0,2.0,30,0.00,,,0.03,Wunderground v.1.13,2013-04-01 18:48:00,
2013-04-01 14:54:00,73.2,37.2,29.75,North,350,3.0,3.0,27,0.00,,,0.03,Wunderground v.1.13,2013-04-01 18:54:00,
2013-04-01 15:00:00,72.8,38.7,29.75,West,274,3.0,3.0,29,0.00,,,0.03,Wunderground v.1.13,2013-04-01 19:00:00,
2013-04-01 15:06:00,73.0,37.0,29.75,NNW,347,3.0,3.0,27,0.00,,,0.03,Wunderground v.1.13,2013-04-01 19:06:00,
2013-04-01 15:12:00,72.7,39.5,29.75,WSW,251,3.0,3.0,30,0.00,,,0.03,Wunderground v.1.13,2013-04-01 19:12:00,
2013-04-01 15:18:00,73.3,38.2,29.74,West,267,2.0,4.0,28,0.00,,,0.03,Wunderground v.1.13,2013-04-01 19:18:00,
2013-04-01 15:24:00,73.3,40.0,29.74,WSW,256,2.0,2.0,30,0.00,,,0.03,Wunderground v.1.13,2013-04-01 19:24:00,
2013-04-01 15:30:00,73.9,38.7,29.74,West,264,3.0,3.0,28,0.00,,,0.03,Wunderground v.1.13,2013-04-01 19:30:00,
2013-04-01 15:40:00,74.6,39.3,29.74,SW,223,4.0,5.0,28,0.00,,,0.03,Wunderground v.1.13,2013-04-01 19:40:00,
2013-04-01 15:46:00,74.2,39.0,29.74,NNW,344,3.0,5.0,28,0.00,,,0.03,Wunderground v.1.13,2013-04-01 19:46:00,
2013-04-01 15:52:00,72.3,37.4,29.74,NNW,344,4.0,11.0,28,0.00,,,0.03,Wunderground v.1.13,2013-04-01 19:52:00,
2013-04-01 15:58:00,71.5,38.4,29.74,NNW,336,3.0,4.0,30,0.00,,,0.03,Wunderground v.1.13,2013-04-01 19:58:00,
2013-04-01 16:04:00,72.5,37.5,29.74,WSW,253,2.0,9.0,28,0.00,,,0.03,Wunderground v.1.13,2013-04-01 20:04:00,
2013-04-01 16:10:00,71.8,36.9,29.74,WSW,239,3.0,3.0,28,0.00,,,0.03,Wunderground v.1.13,2013-04-01 20:10:00,
2013-04-01 16:16:00,70.9,37.0,29.74,North,359,2.0,3.0,29,0.00,,,0.03,Wunderground v.1.13,2013-04-01 20:16:00,
2013-04-01 16:22:00,70.8,37.8,29.74,NW,316,1.0,3.0,30,0.00,,,0.03,Wunderground v.1.13,2013-04-01 20:22:00,
2013-04-01 16:28:00,70.4,37.5,29.74,WSW,253,1.0,1.0,30,0.00,,,0.03,Wunderground v.1.13,2013-04-01 20:28:00,
2013-04-01 16:34:00,70.4,37.5,29.74,WNW,298,2.0,7.0,30,0.00,,,0.03,Wunderground v.1.13,2013-04-01 20:34:00,
2013-04-01 16:40:00,70.1,38.0,29.74,SW,229,3.0,7.0,31,0.00,,,0.03,Wunderground v.1.13,2013-04-01 20:40:00,
2013-04-01 16:46:00,70.1,38.9,29.74,NW,308,1.0,2.0,32,0.00,,,0.03,Wunderground v.1.13,2013-04-01 20:46:00,
2013-04-01 16:53:00,69.9,38.7,29.74,WNW,289,0.0,0.0,32,0.00,,,0.03,Wunderground v.1.13,2013-04-01 20:53:00,
2013-04-01 16:58:00,69.9,37.9,29.74,NW,316,1.0,1.0,31,0.00,,,0.03,Wunderground v.1.13,2013-04-01 20:58:00,
2013-04-01 17:04:00,70.8,39.5,29.74,North,357,1.0,2.0,32,0.00,,,0.03,Wunderground v.1.13,2013-04-01 21:04:00,
2013-04-01 17:10:00,71.3,37.4,29.74,North,354,2.0,5.0,29,0.00,,,0.03,Wunderground v.1.13,2013-04-01 21:10:00,
2013-04-01 17:16:00,71.6,36.8,29.74,North,356,3.0,8.0,28,0.00,,,0.03,Wunderground v.1.13,2013-04-01 21:16:00,
2013-04-01 17:22:00,71.6,36.8,29.74,West,274,4.0,10.0,28,0.00,,,0.03,Wunderground v.1.13,2013-04-01 21:22:00,
2013-04-01 17:28:00,71.1,37.2,29.74,NW,319,2.0,5.0,29,0.00,,,0.03,Wunderground v.1.13,2013-04-01 21:28:00,
2013-04-01 17:34:00,71.1,38.1,29.74,NW,326,2.0,4.0,30,0.00,,,0.03,Wunderground v.1.13,2013-04-01 21:34:00,
2013-04-01 17:40:00,71.1,37.2,29.74,NNW,332,3.0,3.0,29,0.00,,,0.03,Wunderground v.1.13,2013-04-01 21:40:00,
2013-04-01 17:46:00,71.1,37.2,29.75,North,359,4.0,7.0,29,0.00,,,0.03,Wunderground v.1.13,2013-04-01 21:46:00,
2013-04-01 17:54:00,70.8,37.0,29.75,NNW,328,4.0,4.0,29,0.00,,,0.03,Wunderground v.1.13,2013-04-01 21:54:00,
2013-04-01 18:00:00,70.6,35.0,29.75,West,275,3.0,3.0,27,0.00,,,0.03,Wunderground v.1.13,2013-04-01 22:00:00,
2013-04-01 18:06:00,70.4,35.7,29.75,West,270,3.0,7.0,28,0.00,,,0.03,Wunderground v.1.13,2013-04-01 22:06:00,
2013-04-01 18:12:00,70.3,36.5,29.75,WSW,241,4.0,4.0,29,0.00,,,0.03,Wunderground v.1.13,2013-04-01 22:12:00,
2013-04-01 18:18:00,69.6,36.8,29.76,North,354,3.0,3.0,30,0.00,,,0.03,Wunderground v.1.13,2013-04-01 22:18:00,
2013-04-01 18:24:00,69.3,37.3,29.76,NW,326,2.0,12.0,31,0.00,,,0.03,Wunderground v.1.13,2013-04-01 22:24:00,
2013-04-01 18:30:00,69.1,38.0,29.76,North,0,3.0,3.0,32,0.00,,,0.03,Wunderground v.1.13,2013-04-01 22:30:00,
2013-04-01 18:36:00,68.8,36.9,29.77,NW,318,4.0,5.0,31,0.00,,,0.03,Wunderground v.1.13,2013-04-01 22:36:00,
2013-04-01 18:42:00,68.4,37.4,29.77,WNW,291,6.0,6.0,32,0.00,,,0.03,Wunderground v.1.13,2013-04-01 22:42:00,
2013-04-01 18:48:00,68.1,37.9,29.77,North,0,4.0,4.0,33,0.00,,,0.03,Wunderground v.1.13,2013-04-01 22:48:00,
2013-04-01 18:54:00,67.6,39.0,29.77,SW,215,2.0,2.0,35,0.00,,,0.03,Wunderground v.1.13,2013-04-01 22:54:00,
2013-04-01 19:00:00,67.1,37.8,29.77,North,350,2.0,2.0,34,0.00,,,0.03,Wunderground v.1.13,2013-04-01 23:00:00,
2013-04-01 19:06:00,67.1,37.8,29.77,NNW,328,2.0,3.0,34,0.00,,,0.03,Wunderground v.1.13,2013-04-01 23:06:00,
2013-04-01 19:12:00,66.8,38.3,29.77,NNW,340,3.0,3.0,35,0.00,,,0.03,Wunderground v.1.13,2013-04-01 23:12:00,
2013-04-01 19:18:00,66.1,39.1,29.78,NW,323,2.0,2.0,37,0.00,,,0.03,Wunderground v.1.13,2013-04-01 23:18:00,
2013-04-01 19:24:00,65.8,38.8,29.78,North,0,1.0,1.0,37,0.00,,,0.03,Wunderground v.1.13,2013-04-01 23:24:00,
2013-04-01 19:30:00,65.5,39.2,29.78,NNW,346,1.0,5.0,38,0.00,,,0.03,Wunderground v.1.13,2013-04-01 23:30:00,
2013-04-01 19:36:00,65.3,39.0,29.78,NNW,329,1.0,1.0,38,0.00,,,0.03,Wunderground v.1.13,2013-04-01 23:36:00,
2013-04-01 19:42:00,65.0,40.1,29.78,North,350,1.0,1.0,40,0.00,,,0.03,Wunderground v.1.13,2013-04-01 23:42:00,
2013-04-01 19:48:00,64.3,39.4,29.79,North,349,1.0,1.0,40,0.00,,,0.03,Wunderground v.1.13,2013-04-01 23:48:00,
2013-04-01 19:54:00,63.9,39.7,29.79,NW,326,0.0,0.0,41,0.00,,,0.03,Wunderground v.1.13,2013-04-01 23:54:00,
2013-04-01 20:00:00,63.2,41.5,29.79,NW,322,0.0,0.0,45,0.00,,,0.03,Wunderground v.1.13,2013-04-02 00:00:00,
2013-04-01 20:06:00,62.3,41.8,29.79,NW,322,0.0,0.0,47,0.00,,,0.03,Wunderground v.1.13,2013-04-02 00:06:00,
2013-04-01 20:12:00,61.2,40.8,29.79,NW,322,0.0,0.0,47,0.00,,,0.03,Wunderground v.1.13,2013-04-02 00:12:00,
2013-04-01 20:18:00,60.5,41.2,29.80,NW,322,0.0,0.0,49,0.00,,,0.03,Wunderground v.1.13,2013-04-02 00:18:00,
2013-04-01 20:24:00,60.1,40.9,29.80,NW,320,0.0,0.0,49,0.00,,,0.03,Wunderground v.1.13,2013-04-02 00:24:00,
2013-04-01 20:30:00,59.5,41.3,29.80,NW,322,0.0,0.0,51,0.00,,,0.03,Wunderground v.1.13,2013-04-02 00:30:00,
2013-04-01 20:36:00,59.2,43.5,29.81,NW,322,0.0,0.0,56,0.00,,,0.03,Wunderground v.1.13,2013-04-02 00:36:00,
2013-04-01 20:42:00,58.3,43.1,29.81,NW,322,0.0,0.0,57,0.00,,,0.03,Wunderground v.1.13,2013-04-02 00:42:00,
2013-04-01 20:48:00,57.6,43.4,29.81,NW,322,0.0,0.0,59,0.00,,,0.03,Wunderground v.1.13,2013-04-02 00:48:00,
2013-04-01 20:54:00,58.6,42.5,29.81,NW,322,0.0,0.0,55,0.00,,,0.03,Wunderground v.1.13,2013-04-02 00:54:00,
2013-04-01 21:00:00,58.3,42.2,29.81,NW,322,0.0,0.0,55,0.00,,,0.03,Wunderground v.1.13,2013-04-02 01:00:00,
2013-04-01 21:06:00,57.8,41.7,29.82,NW,320,0.0,0.0,55,0.00,,,0.03,Wunderground v.1.13,2013-04-02 01:06:00,
2013-04-01 21:12:00,57.6,43.4,29.82,NW,322,0.0,0.0,59,0.00,,,0.03,Wunderground v.1.13,2013-04-02 01:12:00,
2013-04-01 21:18:00,57.3,43.1,29.82,NW,322,0.0,0.0,59,0.00,,,0.03,Wunderground v.1.13,2013-04-02 01:18:00,
2013-04-01 21:24:00,57.0,43.7,29.82,NW,322,0.0,0.0,61,0.00,,,0.03,Wunderground v.1.13,2013-04-02 01:24:00,
2013-04-01 21:30:00,55.7,44.9,29.82,NW,322,0.0,0.0,67,0.00,,,0.03,Wunderground v.1.13,2013-04-02 01:30:00,
2013-04-01 21:36:00,54.7,44.0,29.83,NW,322,0.0,0.0,67,0.00,,,0.03,Wunderground v.1.13,2013-04-02 01:36:00,
2013-04-01 21:42:00,54.4,42.9,29.83,NW,320,0.0,0.0,65,0.00,,,0.03,Wunderground v.1.13,2013-04-02 01:42:00,
2013-04-01 21:48:00,54.7,42.3,29.84,NW,322,0.0,0.0,63,0.00,,,0.03,Wunderground v.1.13,2013-04-02 01:48:00,
2013-04-01 21:54:00,54.7,43.2,29.84,NW,322,0.0,0.0,65,0.00,,,0.03,Wunderground v.1.13,2013-04-02 01:54:00,
2013-04-01 22:00:00,54.8,43.3,29.84,NW,322,0.0,0.0,65,0.00,,,0.03,Wunderground v.1.13,2013-04-02 02:00:00,
2013-04-01 22:06:00,55.0,43.4,29.84,NW,322,0.0,0.0,65,0.00,,,0.03,Wunderground v.1.13,2013-04-02 02:06:00,
2013-04-01 22:12:00,55.1,43.1,29.84,NW,322,0.0,0.0,64,0.00,,,0.03,Wunderground v.1.13,2013-04-02 02:12:00,
2013-04-01 22:18:00,55.1,43.5,29.85,NW,322,0.0,0.0,65,0.00,,,0.03,Wunderground v.1.13,2013-04-02 02:18:00,
2013-04-01 22:24:00,54.4,43.7,29.85,NW,322,0.0,0.0,67,0.00,,,0.03,Wunderground v.1.13,2013-04-02 02:24:00,
2013-04-01 22:30:00,54.2,43.5,29.85,NW,322,0.0,0.0,67,0.00,,,0.03,Wunderground v.1.13,2013-04-02 02:30:00,
2013-04-01 22:36:00,53.5,43.2,29.85,NW,322,0.0,0.0,68,0.00,,,0.03,Wunderground v.1.13,2013-04-02 02:36:00,
2013-04-01 22:42:00,53.2,43.7,29.85,North,1,0.0,1.0,70,0.00,,,0.03,Wunderground v.1.13,2013-04-02 02:42:00,
2013-04-01 22:48:00,53.5,43.2,29.86,NNW,328,0.0,0.0,68,0.00,,,0.03,Wunderground v.1.13,2013-04-02 02:48:00,
2013-04-01 22:54:00,53.8,41.5,29.86,NNW,328,0.0,0.0,63,0.00,,,0.03,Wunderground v.1.13,2013-04-02 02:54:00,
2013-04-01 23:00:00,55.0,38.2,29.86,NNW,328,1.0,6.0,53,0.00,,,0.03,Wunderground v.1.13,2013-04-02 03:00:00,
2013-04-01 23:06:00,56.2,37.8,29.87,NNE,18,2.0,2.0,50,0.00,,,0.03,Wunderground v.1.13,2013-04-02 03:06:00,
2013-04-01 23:12:00,56.2,37.8,29.87,NE,55,1.0,1.0,50,0.00,,,0.03,Wunderground v.1.13,2013-04-02 03:12:00,
2013-04-01 23:18:00,55.9,37.5,29.88,North,0,1.0,1.0,50,0.00,,,0.03,Wunderground v.1.13,2013-04-02 03:18:00,
2013-04-01 23:24:00,55.4,37.1,29.88,ENE,59,2.0,10.0,50,0.00,,,0.03,Wunderground v.1.13,2013-04-02 03:24:00,
2013-04-01 23:30:00,54.8,36.5,29.88,NE,40,3.0,3.0,50,0.00,,,0.03,Wunderground v.1.13,2013-04-02 03:30:00,
2013-04-01 23:36:00,53.9,36.2,29.90,North,4,3.0,3.0,51,0.00,,,0.03,Wunderground v.1.13,2013-04-02 03:36:00,
2013-04-01 23:42:00,53.2,36.0,29.90,ENE,66,3.0,3.0,52,0.00,,,0.03,Wunderground v.1.13,2013-04-02 03:42:00,
2013-04-01 23:48:00,52.6,35.9,29.91,North,357,2.0,2.0,53,0.00,,,0.03,Wunderground v.1.13,2013-04-02 03:48:00,
2013-04-01 23:54:00,52.3,36.1,29.91,NNW,337,1.0,1.0,54,0.00,,,0.03,Wunderground v.1.13,2013-04-02 03:54:00,